Time;durP1;ratioP1;P1;durP2;ratioP2;P2;SDS_P1;SDS_P2;PMS_P1;PMS_P2;Temp;Humidity;BMP_temperature;BMP_pressure;BME280_temperature;BME280_humidity;BME280_pressure;Samples;Min_cycle;Max_cycle;Signal;HPM_P1;HPM_P2
2022/11/26 00:02:54;;;;;;;168.88;66.22;;;;;;;;;;6275922;28;20479;-62
2022/11/26 00:05:56;;;;;;;159.07;61.30;;;;;;;;;;6248775;28;20068;-68
2022/11/26 00:08:58;;;;;;;152.80;56.85;;;;;;;;;;6261323;28;20053;-62
2022/11/26 00:11:58;;;;;;;156.45;56.97;;;;;;;;;;6256965;28;20098;-62
2022/11/26 00:15:07;;;;;;;155.90;58.40;;;;;;;;;;6248072;28;20052;-61
2022/11/26 00:18:08;;;;;;;168.18;62.15;;;;;;;;;;6248042;28;20049;-62
2022/11/26 00:21:24;;;;;;;158.52;56.92;;;;;;;;;;6250034;28;20466;-62
2022/11/26 00:24:27;;;;;;;150.10;57.20;;;;;;;;;;6249500;28;20059;-61
2022/11/26 00:27:28;;;;;;;148.85;51.08;;;;;;;;;;6248303;28;20037;-63
2022/11/26 00:30:29;;;;;;;130.57;46.83;;;;;;;;;;6256503;28;20575;-62
2022/11/26 00:33:29;;;;;;;133.85;46.22;;;;;;;;;;6247835;28;20057;-62
2022/11/26 00:36:31;;;;;;;137.98;50.63;;;;;;;;;;6247942;28;20168;-62
2022/11/26 00:39:32;;;;;;;131.63;45.28;;;;;;;;;;6247501;28;20468;-61
2022/11/26 00:42:32;;;;;;;126.25;44.42;;;;;;;;;;6246833;28;20042;-61
2022/11/26 00:45:33;;;;;;;131.65;45.30;;;;;;;;;;6247266;28;20052;-61
2022/11/26 00:48:33;;;;;;;125.15;42.83;;;;;;;;;;6250894;28;20179;-62
2022/11/26 00:51:35;;;;;;;125.45;43.75;;;;;;;;;;6255036;28;22434;-63
2022/11/26 00:54:36;;;;;;;118.70;41.77;;;;;;;;;;6254766;28;20053;-63
2022/11/26 00:57:36;;;;;;;125.53;42.17;;;;;;;;;;6251952;28;20076;-61
2022/11/26 01:00:37;;;;;;;124.60;42.47;;;;;;;;;;6251316;28;20130;-61
2022/11/26 01:03:41;;;;;;;124.50;43.50;;;;;;;;;;6250332;28;20045;-61
2022/11/26 01:06:44;;;;;;;123.10;40.30;;;;;;;;;;6252163;28;20480;-70
2022/11/26 01:09:46;;;;;;;128.25;44.00;;;;;;;;;;6253519;28;20045;-62
2022/11/26 01:12:47;;;;;;;126.57;43.10;;;;;;;;;;6252135;28;20064;-61
2022/11/26 01:15:48;;;;;;;129.98;43.65;;;;;;;;;;6248441;28;20049;-62
2022/11/26 01:18:51;;;;;;;128.15;42.83;;;;;;;;;;6263727;28;20041;-62
2022/11/26 01:21:52;;;;;;;120.53;41.70;;;;;;;;;;6256875;28;20053;-63
2022/11/26 01:24:53;;;;;;;135.30;43.90;;;;;;;;;;6254232;28;20071;-61
2022/11/26 01:27:53;;;;;;;120.90;42.65;;;;;;;;;;6251247;28;20095;-60
2022/11/26 01:30:54;;;;;;;125.30;42.88;;;;;;;;;;6251572;28;20577;-61
2022/11/26 01:33:56;;;;;;;122.18;44.65;;;;;;;;;;6261950;28;20064;-61
2022/11/26 01:36:56;;;;;;;122.93;43.72;;;;;;;;;;6261502;28;20492;-61
2022/11/26 01:39:57;;;;;;;133.93;49.85;;;;;;;;;;6251531;28;20048;-61
2022/11/26 01:43:09;;;;;;;136.75;50.65;;;;;;;;;;6252376;28;20076;-61
2022/11/26 01:46:16;;;;;;;;;;;;;;;;;;6250392;28;20140;-62
2022/11/26 01:49:27;;;;;;;158.45;57.70;;;;;;;;;;6251175;28;19958;-62
2022/11/26 01:52:27;;;;;;;150.60;54.35;;;;;;;;;;6250506;28;20056;-62
2022/11/26 01:55:35;;;;;;;157.60;56.80;;;;;;;;;;6251647;28;20697;-67
2022/11/26 01:58:41;;;;;;;156.13;55.03;;;;;;;;;;6250986;28;20508;-62
2022/11/26 02:01:42;;;;;;;159.85;57.33;;;;;;;;;;6248516;28;20052;-62
2022/11/26 02:04:48;;;;;;;168.05;56.05;;;;;;;;;;6252094;28;20493;-62
2022/11/26 02:07:51;;;;;;;152.80;53.47;;;;;;;;;;6252678;28;20045;-61
2022/11/26 02:10:52;;;;;;;149.75;54.88;;;;;;;;;;6250695;28;20037;-62
2022/11/26 02:14:00;;;;;;;166.93;55.97;;;;;;;;;;6267350;28;20091;-66
2022/11/26 02:17:18;;;;;;;152.05;53.78;;;;;;;;;;6252327;28;20056;-62
2022/11/26 02:20:57;;;;;;;166.55;56.05;;;;;;;;;;6249160;28;20059;-62
2022/11/26 02:24:20;;;;;;;162.02;55.13;;;;;;;;;;6250723;28;20029;-62
2022/11/26 02:27:49;;;;;;;155.07;54.83;;;;;;;;;;6254732;28;20051;-61
2022/11/26 02:30:57;;;;;;;161.35;53.60;;;;;;;;;;6250032;28;20144;-61
2022/11/26 02:34:04;;;;;;;162.70;54.47;;;;;;;;;;6250266;28;20471;-62
2022/11/26 02:37:11;;;;;;;144.75;50.97;;;;;;;;;;6251439;28;20489;-62
2022/11/26 02:40:12;;;;;;;173.93;56.00;;;;;;;;;;6251456;28;20056;-62
2022/11/26 02:43:14;;;;;;;157.20;52.10;;;;;;;;;;6265795;28;20053;-63
2022/11/26 02:46:18;;;;;;;160.57;53.28;;;;;;;;;;6255007;28;20052;-63
2022/11/26 02:49:20;;;;;;;142.90;48.85;;;;;;;;;;6250345;28;20519;-62
2022/11/26 02:52:23;;;;;;;142.82;47.83;;;;;;;;;;6247852;28;20053;-62
2022/11/26 02:55:31;;;;;;;121.80;43.45;;;;;;;;;;6251242;28;20061;-62
2022/11/26 02:58:34;;;;;;;117.95;42.30;;;;;;;;;;6251289;28;20050;-62
2022/11/26 03:01:40;;;;;;;132.43;47.53;;;;;;;;;;6249735;28;20386;-62
2022/11/26 03:04:45;;;;;;;125.57;45.72;;;;;;;;;;6250480;28;20049;-62
2022/11/26 03:07:48;;;;;;;158.57;56.17;;;;;;;;;;6251701;28;20081;-73
2022/11/26 03:10:49;;;;;;;142.55;53.95;;;;;;;;;;6252857;28;20118;-63
2022/11/26 03:13:50;;;;;;;145.52;51.78;;;;;;;;;;6250503;28;20045;-65
2022/11/26 03:16:50;;;;;;;162.65;54.75;;;;;;;;;;6250005;28;20124;-67
2022/11/26 03:19:51;;;;;;;154.73;53.83;;;;;;;;;;6249992;28;20048;-62
2022/11/26 03:22:52;;;;;;;125.93;43.83;;;;;;;;;;6249843;28;20073;-62
2022/11/26 03:25:52;;;;;;;100.35;36.00;;;;;;;;;;6259070;28;20550;-62
2022/11/26 03:28:53;;;;;;;141.18;46.10;;;;;;;;;;6256462;28;20045;-61
2022/11/26 03:31:53;;;;;;;122.70;42.47;;;;;;;;;;6251755;28;20042;-62
2022/11/26 03:34:54;;;;;;;150.23;46.17;;;;;;;;;;6265750;28;20135;-62
2022/11/26 03:37:55;;;;;;;248.82;62.55;;;;;;;;;;6253748;28;20056;-62
2022/11/26 03:41:01;;;;;;;276.48;59.22;;;;;;;;;;6263140;28;20118;-62
2022/11/26 03:44:01;;;;;;;305.48;57.58;;;;;;;;;;6257471;28;20046;-62
2022/11/26 03:47:02;;;;;;;285.05;50.83;;;;;;;;;;6260591;28;20115;-61
2022/11/26 03:50:04;;;;;;;274.58;51.30;;;;;;;;;;6246420;28;20527;-62
2022/11/26 03:53:05;;;;;;;288.40;51.40;;;;;;;;;;6253006;28;20557;-62
2022/11/26 03:56:06;;;;;;;347.67;53.40;;;;;;;;;;6252395;28;20049;-62
2022/11/26 03:59:08;;;;;;;158.82;47.03;;;;;;;;;;6260066;28;20128;-62
2022/11/26 04:02:08;;;;;;;237.55;50.95;;;;;;;;;;6246763;28;20041;-61
2022/11/26 04:05:09;;;;;;;134.45;48.22;;;;;;;;;;6251547;28;20045;-62
2022/11/26 04:08:09;;;;;;;146.00;49.38;;;;;;;;;;6247298;28;20048;-62
2022/11/26 04:11:10;;;;;;;141.52;49.28;;;;;;;;;;6250145;28;20155;-62
2022/11/26 04:14:11;;;;;;;135.73;47.03;;;;;;;;;;6251169;28;20132;-61
2022/11/26 04:17:11;;;;;;;132.25;46.65;;;;;;;;;;6252833;28;20049;-62
2022/11/26 04:20:12;;;;;;;120.85;43.55;;;;;;;;;;6249998;28;20049;-62
2022/11/26 04:23:12;;;;;;;120.03;43.85;;;;;;;;;;6254264;28;20044;-62
2022/11/26 04:26:13;;;;;;;115.85;39.90;;;;;;;;;;6252673;28;20487;-68
2022/11/26 04:29:14;;;;;;;109.22;40.60;;;;;;;;;;6253589;28;20586;-62
2022/11/26 04:32:14;;;;;;;115.85;40.10;;;;;;;;;;6254384;28;20045;-62
2022/11/26 04:35:15;;;;;;;112.38;40.85;;;;;;;;;;6254147;28;20067;-62
2022/11/26 04:38:16;;;;;;;120.95;42.15;;;;;;;;;;6234006;28;20045;-62
2022/11/26 04:41:16;;;;;;;113.38;39.70;;;;;;;;;;6253883;28;20539;-62
2022/11/26 04:44:17;;;;;;;114.07;42.47;;;;;;;;;;6254549;28;20053;-62
2022/11/26 04:47:19;;;;;;;130.40;42.80;;;;;;;;;;6252630;28;20080;-62
2022/11/26 04:50:19;;;;;;;121.67;43.13;;;;;;;;;;6261494;28;20049;-62
2022/11/26 04:53:20;;;;;;;125.65;44.22;;;;;;;;;;6270858;28;20091;-62
2022/11/26 04:56:22;;;;;;;135.82;47.17;;;;;;;;;;6252415;28;20400;-62
2022/11/26 04:59:22;;;;;;;148.03;48.63;;;;;;;;;;6253874;28;20111;-62
2022/11/26 05:02:23;;;;;;;137.30;47.35;;;;;;;;;;6252709;28;20511;-62
2022/11/26 05:05:24;;;;;;;150.50;52.97;;;;;;;;;;6249366;28;20536;-61
2022/11/26 05:08:24;;;;;;;128.50;45.70;;;;;;;;;;6249601;28;20045;-68
2022/11/26 05:11:25;;;;;;;128.50;45.72;;;;;;;;;;6254298;28;20054;-62
2022/11/26 05:14:27;;;;;;;138.88;47.15;;;;;;;;;;6251035;28;20060;-62
2022/11/26 05:17:27;;;;;;;119.88;42.92;;;;;;;;;;6253863;28;20160;-62
2022/11/26 05:20:28;;;;;;;121.53;41.50;;;;;;;;;;6255095;28;20528;-62
2022/11/26 05:23:29;;;;;;;120.57;43.00;;;;;;;;;;6254596;28;20041;-62
2022/11/26 05:26:29;;;;;;;119.18;43.33;;;;;;;;;;6251578;28;20419;-62
2022/11/26 05:29:30;;;;;;;143.57;47.78;;;;;;;;;;6251973;28;20556;-62
2022/11/26 05:32:32;;;;;;;;;;;;;;;;;;6253764;28;20095;-62
2022/11/26 05:35:33;;;;;;;135.68;45.90;;;;;;;;;;6249743;28;19928;-62
2022/11/26 05:38:33;;;;;;;147.98;49.50;;;;;;;;;;6252060;28;20468;-62
2022/11/26 05:41:34;;;;;;;155.10;54.03;;;;;;;;;;6267702;28;20132;-62
2022/11/26 05:44:35;;;;;;;141.52;47.42;;;;;;;;;;6257258;28;20052;-62
2022/11/26 05:47:36;;;;;;;129.23;47.03;;;;;;;;;;6252342;28;20049;-62
2022/11/26 05:50:36;;;;;;;126.68;45.95;;;;;;;;;;6254059;28;20071;-62
2022/11/26 05:53:37;;;;;;;128.27;46.00;;;;;;;;;;6251963;28;20134;-62
2022/11/26 05:56:37;;;;;;;119.22;42.90;;;;;;;;;;6252837;28;20053;-62
2022/11/26 05:59:38;;;;;;;121.03;43.03;;;;;;;;;;6263126;28;20399;-62
2022/11/26 06:02:38;;;;;;;126.55;42.72;;;;;;;;;;6265451;28;20049;-62
2022/11/26 06:05:39;;;;;;;130.80;45.10;;;;;;;;;;6256987;28;20091;-62
2022/11/26 06:08:40;;;;;;;119.85;43.13;;;;;;;;;;6255861;28;20042;-62
2022/11/26 06:11:40;;;;;;;115.00;43.83;;;;;;;;;;6260327;28;20051;-62
2022/11/26 06:14:41;;;;;;;117.32;42.95;;;;;;;;;;6262264;28;20504;-62
2022/11/26 06:17:42;;;;;;;121.55;44.17;;;;;;;;;;6265965;28;20368;-62
2022/11/26 06:20:43;;;;;;;128.60;46.00;;;;;;;;;;6268848;28;20144;-62
2022/11/26 06:23:43;;;;;;;121.78;44.58;;;;;;;;;;6267240;28;20055;-63
2022/11/26 06:26:44;;;;;;;143.57;48.80;;;;;;;;;;6267371;28;20049;-62
2022/11/26 06:29:45;;;;;;;139.50;50.50;;;;;;;;;;6267316;28;20048;-62
2022/11/26 06:32:45;;;;;;;146.30;55.17;;;;;;;;;;6268077;28;20037;-62
2022/11/26 06:35:46;;;;;;;145.23;53.33;;;;;;;;;;6265308;28;20131;-62
2022/11/26 06:38:46;;;;;;;141.07;51.35;;;;;;;;;;6266256;28;20044;-71
2022/11/26 06:41:47;;;;;;;163.82;59.15;;;;;;;;;;6262855;28;20045;-62
2022/11/26 06:44:48;;;;;;;131.73;48.03;;;;;;;;;;6261700;28;20045;-62
2022/11/26 06:47:50;;;;;;;121.10;44.38;;;;;;;;;;6251192;28;20410;-63
2022/11/26 06:50:51;;;;;;;123.20;44.42;;;;;;;;;;6251955;28;20065;-70
2022/11/26 06:53:53;;;;;;;118.82;44.33;;;;;;;;;;6246608;28;20360;-62
2022/11/26 06:56:53;;;;;;;135.80;49.30;;;;;;;;;;6246430;28;20630;-62
2022/11/26 06:59:54;;;;;;;114.95;44.20;;;;;;;;;;6251835;28;20049;-61
2022/11/26 07:02:55;;;;;;;128.95;45.65;;;;;;;;;;6249162;28;20053;-62
2022/11/26 07:05:55;;;;;;;132.63;47.33;;;;;;;;;;6242559;28;20053;-61
2022/11/26 07:08:58;;;;;;;136.63;47.72;;;;;;;;;;6249744;28;20041;-62
2022/11/26 07:11:59;;;;;;;147.20;51.88;;;;;;;;;;6248064;28;20548;-62
2022/11/26 07:14:59;;;;;;;149.20;54.72;;;;;;;;;;6248923;28;20056;-61
2022/11/26 07:18:00;;;;;;;164.18;57.75;;;;;;;;;;6248088;28;20496;-63
2022/11/26 07:21:23;;;;;;;168.70;60.03;;;;;;;;;;6267015;28;20403;-63
2022/11/26 07:24:24;;;;;;;171.25;59.72;;;;;;;;;;6263786;28;20476;-62
2022/11/26 07:27:24;;;;;;;164.73;60.42;;;;;;;;;;6265189;28;20053;-61
2022/11/26 07:30:25;;;;;;;175.98;63.00;;;;;;;;;;6263279;28;20057;-61
2022/11/26 07:33:26;;;;;;;192.95;69.10;;;;;;;;;;6251099;28;20769;-61
2022/11/26 07:36:28;;;;;;;320.23;109.88;;;;;;;;;;6248220;28;20056;-61
2022/11/26 07:39:29;;;;;;;;;;;;;;;;;;6244716;28;20044;-69
2022/11/26 07:42:31;;;;;;;319.25;116.57;;;;;;;;;;6248885;28;20256;-61
2022/11/26 07:45:35;;;;;;;235.20;80.40;;;;;;;;;;6249097;28;20875;-69
2022/11/26 07:48:38;;;;;;;196.80;70.30;;;;;;;;;;6258395;28;20060;-61
2022/11/26 07:51:39;;;;;;;197.70;71.78;;;;;;;;;;6245190;28;20042;-62
2022/11/26 07:54:39;;;;;;;191.23;69.53;;;;;;;;;;6243129;28;20045;-69
2022/11/26 07:57:40;;;;;;;204.30;72.13;;;;;;;;;;6249147;28;20469;-61
2022/11/26 08:00:40;;;;;;;226.15;84.28;;;;;;;;;;6256271;28;20124;-61
2022/11/26 08:03:44;;;;;;;260.98;89.60;;;;;;;;;;6252653;28;20048;-62
2022/11/26 08:06:45;;;;;;;239.52;81.45;;;;;;;;;;6249415;28;20554;-61
2022/11/26 08:09:46;;;;;;;212.93;75.90;;;;;;;;;;6249838;28;20045;-62
2022/11/26 08:12:46;;;;;;;221.77;81.72;;;;;;;;;;6276517;28;20140;-61
2022/11/26 08:15:48;;;;;;;209.80;75.25;;;;;;;;;;6272753;28;20499;-61
2022/11/26 08:18:53;;;;;;;207.95;75.95;;;;;;;;;;6255907;28;20049;-62
2022/11/26 08:21:54;;;;;;;196.73;70.78;;;;;;;;;;6251374;28;20115;-63
2022/11/26 08:24:55;;;;;;;196.90;71.90;;;;;;;;;;6275052;28;20791;-73
2022/11/26 08:27:55;;;;;;;212.32;78.63;;;;;;;;;;6262482;28;20045;-62
2022/11/26 08:31:01;;;;;;;234.70;79.85;;;;;;;;;;6251522;28;20544;-61
2022/11/26 08:34:02;;;;;;;213.77;78.28;;;;;;;;;;6250274;28;20042;-63
2022/11/26 08:37:02;;;;;;;204.32;74.35;;;;;;;;;;6241089;28;20415;-62
2022/11/26 08:40:04;;;;;;;187.82;70.45;;;;;;;;;;6265601;28;20042;-62
2022/11/26 08:43:07;;;;;;;168.35;61.35;;;;;;;;;;6261825;28;20488;-62
2022/11/26 08:46:10;;;;;;;164.13;60.80;;;;;;;;;;6273718;28;20075;-62
2022/11/26 08:49:11;;;;;;;186.73;70.60;;;;;;;;;;6259120;28;20108;-69
2022/11/26 08:52:12;;;;;;;167.73;59.22;;;;;;;;;;6274780;28;20557;-69
2022/11/26 08:55:13;;;;;;;181.40;65.68;;;;;;;;;;6269420;28;20045;-61
2022/11/26 08:58:14;;;;;;;185.48;67.38;;;;;;;;;;6255253;28;20048;-60
2022/11/26 09:01:23;;;;;;;183.88;62.67;;;;;;;;;;6264080;28;20519;-63
2022/11/26 09:04:23;;;;;;;223.10;74.53;;;;;;;;;;6253692;28;20483;-63
2022/11/26 09:07:24;;;;;;;209.90;74.25;;;;;;;;;;6252589;28;20073;-63
2022/11/26 09:10:27;;;;;;;184.73;65.18;;;;;;;;;;6255237;28;20500;-63
2022/11/26 09:13:28;;;;;;;226.05;81.13;;;;;;;;;;6250466;28;20054;-63
2022/11/26 09:16:29;;;;;;;162.88;58.95;;;;;;;;;;6245058;28;20080;-63
2022/11/26 09:19:31;;;;;;;172.80;63.80;;;;;;;;;;6248858;28;20088;-62
2022/11/26 09:22:33;;;;;;;182.48;67.85;;;;;;;;;;6249136;28;20408;-64
2022/11/26 09:25:37;;;;;;;162.90;59.78;;;;;;;;;;6251902;28;20545;-63
2022/11/26 09:28:38;;;;;;;177.63;71.35;;;;;;;;;;6250905;28;20041;-63
2022/11/26 09:31:39;;;;;;;163.60;59.08;;;;;;;;;;6248848;28;20485;-64
2022/11/26 09:34:39;;;;;;;141.63;52.60;;;;;;;;;;6245426;28;20049;-63
2022/11/26 09:37:40;;;;;;;166.90;58.92;;;;;;;;;;6250317;28;20501;-64
2022/11/26 09:41:01;;;;;;;150.50;51.15;;;;;;;;;;6245762;28;20057;-60
2022/11/26 09:44:21;;;;;;;149.52;58.42;;;;;;;;;;6249804;28;20473;-63
2022/11/26 09:47:25;;;;;;;128.90;44.47;;;;;;;;;;6249651;28;20128;-63
2022/11/26 09:50:30;;;;;;;129.38;43.20;;;;;;;;;;6249257;28;20053;-63
2022/11/26 09:53:36;;;;;;;132.50;45.22;;;;;;;;;;6249892;28;20049;-63
2022/11/26 09:56:37;;;;;;;134.00;48.20;;;;;;;;;;6248957;28;20488;-63
2022/11/26 09:59:38;;;;;;;139.43;50.05;;;;;;;;;;6249374;28;20103;-63
2022/11/26 10:02:39;;;;;;;126.38;42.72;;;;;;;;;;6251319;28;20389;-63
2022/11/26 10:05:46;;;;;;;131.30;48.65;;;;;;;;;;6263218;28;20049;-63
2022/11/26 10:09:02;;;;;;;119.82;45.58;;;;;;;;;;6254660;28;20419;-63
2022/11/26 10:12:15;;;;;;;126.80;46.13;;;;;;;;;;6248827;28;20052;-62
2022/11/26 10:15:37;;;;;;;120.47;45.72;;;;;;;;;;6249489;28;20415;-62
2022/11/26 10:19:23;;;;;;;125.22;40.22;;;;;;;;;;6252631;28;20057;-62
2022/11/26 10:22:49;;;;;;;108.10;37.15;;;;;;;;;;6250654;28;20476;-62
2022/11/26 10:25:53;;;;;;;116.20;37.40;;;;;;;;;;6261020;28;20053;-63
2022/11/26 10:29:17;;;;;;;109.53;36.90;;;;;;;;;;6249078;28;20132;-62
2022/11/26 10:32:36;;;;;;;117.43;38.80;;;;;;;;;;6250821;28;20048;-63
2022/11/26 10:35:42;;;;;;;109.60;37.67;;;;;;;;;;6248359;28;20059;-68
2022/11/26 10:38:42;;;;;;;140.65;50.70;;;;;;;;;;6249233;28;20049;-63
2022/11/26 10:41:44;;;;;;;131.43;48.17;;;;;;;;;;6247083;28;20053;-63
2022/11/26 10:44:46;;;;;;;138.65;52.30;;;;;;;;;;6248627;28;20547;-63
2022/11/26 10:47:46;;;;;;;125.00;41.38;;;;;;;;;;6247637;28;20041;-68
2022/11/26 10:51:19;;;;;;;120.90;43.60;;;;;;;;;;6248162;28;20061;-63
2022/11/26 10:54:36;;;;;;;119.80;46.08;;;;;;;;;;6244359;28;20056;-74
2022/11/26 10:57:42;;;;;;;121.65;39.65;;;;;;;;;;6243843;28;20106;-63
2022/11/26 11:00:50;;;;;;;123.32;40.88;;;;;;;;;;6250671;28;20041;-63
2022/11/26 11:03:56;;;;;;;120.32;39.05;;;;;;;;;;6246824;28;20052;-74
2022/11/26 11:06:57;;;;;;;117.70;38.83;;;;;;;;;;6244869;28;20103;-62
2022/11/26 11:10:07;;;;;;;130.02;43.78;;;;;;;;;;6248181;28;20049;-62
2022/11/26 11:13:11;;;;;;;108.55;36.40;;;;;;;;;;6250497;28;20037;-62
2022/11/26 11:16:42;;;;;;;102.80;34.47;;;;;;;;;;6245958;28;20496;-62
2022/11/26 11:19:43;;;;;;;111.90;36.05;;;;;;;;;;6233409;28;20479;-72
2022/11/26 11:22:44;;;;;;;106.18;35.05;;;;;;;;;;6247684;28;20052;-63
2022/11/26 11:25:56;;;;;;;97.38;33.65;;;;;;;;;;6243120;28;20472;-65
2022/11/26 11:28:57;;;;;;;103.27;32.70;;;;;;;;;;6246428;28;20515;-63
2022/11/26 11:32:00;;;;;;;94.22;32.08;;;;;;;;;;6245643;28;20065;-72
2022/11/26 11:35:25;;;;;;;107.13;34.28;;;;;;;;;;6245151;28;20046;-62
2022/11/26 11:38:29;;;;;;;100.40;32.15;;;;;;;;;;6248463;28;20565;-62
2022/11/26 11:41:38;;;;;;;104.35;32.40;;;;;;;;;;6248712;28;20132;-62
2022/11/26 11:44:44;;;;;;;94.68;30.52;;;;;;;;;;6248299;28;20140;-63
2022/11/26 11:47:51;;;;;;;104.15;31.33;;;;;;;;;;6246343;28;20476;-64
2022/11/26 11:51:02;;;;;;;96.80;31.50;;;;;;;;;;6254339;28;20131;-63
2022/11/26 11:54:02;;;;;;;100.72;32.28;;;;;;;;;;6267189;28;20510;-66
2022/11/26 11:57:20;;;;;;;106.88;34.28;;;;;;;;;;6267544;28;20044;-70
2022/11/26 12:00:25;;;;;;;108.85;32.03;;;;;;;;;;6266412;28;20047;-74
2022/11/26 12:03:37;;;;;;;114.72;34.03;;;;;;;;;;6267225;28;20110;-62
2022/11/26 12:07:19;;;;;;;106.53;32.47;;;;;;;;;;6267597;28;20048;-68
2022/11/26 12:10:26;;;;;;;112.72;35.88;;;;;;;;;;6267108;28;20542;-63
2022/11/26 12:13:29;;;;;;;109.32;35.03;;;;;;;;;;6265973;28;20506;-62
2022/11/26 12:16:37;;;;;;;118.90;33.28;;;;;;;;;;6263436;28;20053;-62
2022/11/26 12:19:41;;;;;;;108.43;34.25;;;;;;;;;;6247876;28;20507;-62
2022/11/26 12:22:49;;;;;;;112.15;34.42;;;;;;;;;;6248359;28;20051;-63
2022/11/26 12:26:11;;;;;;;122.25;35.50;;;;;;;;;;6246528;28;20060;-62
2022/11/26 12:29:43;;;;;;;115.05;33.25;;;;;;;;;;6245972;28;20055;-62
2022/11/26 12:32:50;;;;;;;117.65;33.60;;;;;;;;;;6248448;28;20118;-62
2022/11/26 12:35:56;;;;;;;124.40;34.13;;;;;;;;;;6247334;28;20140;-64
2022/11/26 12:39:01;;;;;;;103.95;33.38;;;;;;;;;;6246137;28;20057;-63
2022/11/26 12:42:24;;;;;;;119.55;34.28;;;;;;;;;;6250449;28;20131;-62
2022/11/26 12:45:49;;;;;;;119.15;32.58;;;;;;;;;;6252606;28;20087;-62
2022/11/26 12:49:07;;;;;;;112.82;31.00;;;;;;;;;;6251188;28;20057;-62
2022/11/26 12:52:23;;;;;;;112.55;31.50;;;;;;;;;;6253645;28;20150;-62
2022/11/26 12:55:49;;;;;;;109.47;33.47;;;;;;;;;;6247098;28;20049;-63
2022/11/26 12:58:59;;;;;;;116.85;32.47;;;;;;;;;;6262213;28;20037;-62
2022/11/26 13:02:17;;;;;;;87.93;27.13;;;;;;;;;;6252518;28;20071;-63
2022/11/26 13:05:23;;;;;;;95.50;30.27;;;;;;;;;;6251909;28;20128;-63
2022/11/26 13:08:36;;;;;;;95.72;29.25;;;;;;;;;;6249498;28;20072;-65
2022/11/26 13:12:07;;;;;;;89.25;28.35;;;;;;;;;;6261143;28;20045;-62
2022/11/26 13:15:33;;;;;;;85.68;26.90;;;;;;;;;;6264115;28;20084;-66
2022/11/26 13:18:40;;;;;;;86.65;27.35;;;;;;;;;;6266874;28;20144;-64
2022/11/26 13:21:43;;;;;;;91.18;27.67;;;;;;;;;;6269484;28;20408;-63
2022/11/26 13:24:44;;;;;;;78.05;25.58;;;;;;;;;;6269509;28;20064;-71
2022/11/26 13:27:56;;;;;;;85.38;28.92;;;;;;;;;;6270113;28;20118;-61
2022/11/26 13:31:06;;;;;;;80.97;25.70;;;;;;;;;;6267670;28;20048;-62
2022/11/26 13:34:38;;;;;;;81.88;25.77;;;;;;;;;;6259381;28;20610;-62
2022/11/26 13:38:09;;;;;;;80.40;25.10;;;;;;;;;;6265826;28;20059;-62
2022/11/26 13:41:10;;;;;;;70.27;25.20;;;;;;;;;;6261859;28;20057;-62
2022/11/26 13:44:35;;;;;;;75.55;25.23;;;;;;;;;;6264745;28;20397;-63
2022/11/26 13:47:43;;;;;;;75.95;26.25;;;;;;;;;;6266788;28;20053;-62
2022/11/26 13:50:50;;;;;;;80.50;26.63;;;;;;;;;;6268859;28;20486;-64
2022/11/26 13:54:03;;;;;;;75.57;25.92;;;;;;;;;;6266997;28;20037;-62
2022/11/26 13:57:11;;;;;;;79.45;27.20;;;;;;;;;;6267118;28;20047;-62
2022/11/26 14:00:27;;;;;;;75.65;25.73;;;;;;;;;;6267661;28;20041;-62
2022/11/26 14:03:44;;;;;;;80.43;27.42;;;;;;;;;;6268647;28;20502;-62
2022/11/26 14:07:10;;;;;;;77.25;25.73;;;;;;;;;;6268951;28;20041;-62
2022/11/26 14:10:35;;;;;;;69.53;23.90;;;;;;;;;;6266310;28;20041;-65
2022/11/26 14:13:37;;;;;;;70.70;24.80;;;;;;;;;;6266642;28;20140;-61
2022/11/26 14:17:16;;;;;;;71.57;25.70;;;;;;;;;;6255659;28;20083;-62
2022/11/26 14:20:17;;;;;;;77.05;25.40;;;;;;;;;;6255988;28;20083;-63
2022/11/26 14:23:39;;;;;;;72.90;25.13;;;;;;;;;;6261789;28;20500;-62
2022/11/26 14:26:40;;;;;;;73.47;26.25;;;;;;;;;;6261298;28;20605;-67
2022/11/26 14:29:45;;;;;;;69.45;24.67;;;;;;;;;;6263810;28;20053;-61
2022/11/26 14:32:58;;;;;;;73.38;26.48;;;;;;;;;;6264016;28;20071;-73
2022/11/26 14:35:59;;;;;;;71.43;26.33;;;;;;;;;;6257770;28;20175;-69
2022/11/26 14:39:13;;;;;;;73.65;26.20;;;;;;;;;;6264067;28;20068;-69
2022/11/26 14:42:16;;;;;;;78.07;28.42;;;;;;;;;;6266187;28;20057;-61
2022/11/26 14:45:23;;;;;;;71.18;26.13;;;;;;;;;;6263692;28;20141;-69
2022/11/26 14:48:25;;;;;;;66.72;25.42;;;;;;;;;;6270926;28;20215;-62
2022/11/26 14:51:26;;;;;;;72.07;25.15;;;;;;;;;;6272484;28;20057;-66
2022/11/26 14:54:32;;;;;;;69.85;26.73;;;;;;;;;;6269900;28;20060;-63
2022/11/26 14:58:11;;;;;;;62.00;24.38;;;;;;;;;;6264793;28;20549;-72
2022/11/26 15:01:14;;;;;;;61.47;22.80;;;;;;;;;;6238893;28;20041;-67
2022/11/26 15:04:23;;;;;;;66.55;23.95;;;;;;;;;;6270165;28;20093;-61
2022/11/26 15:07:24;;;;;;;67.40;24.77;;;;;;;;;;6266572;28;20119;-65
2022/11/26 15:10:30;;;;;;;67.10;25.83;;;;;;;;;;6273976;28;20049;-61
2022/11/26 15:13:43;;;;;;;66.88;25.13;;;;;;;;;;6264843;28;20049;-71
2022/11/26 15:16:51;;;;;;;64.72;23.85;;;;;;;;;;6269005;28;20049;-61
2022/11/26 15:19:55;;;;;;;69.03;25.60;;;;;;;;;;6270667;28;20558;-64
2022/11/26 15:22:58;;;;;;;65.05;25.33;;;;;;;;;;6263578;28;20486;-69
2022/11/26 15:26:00;;;;;;;67.85;25.25;;;;;;;;;;6259637;28;20088;-66
2022/11/26 15:29:02;;;;;;;67.50;26.30;;;;;;;;;;6262618;28;20063;-65
2022/11/26 15:32:03;;;;;;;71.77;28.40;;;;;;;;;;6260508;28;20757;-61
2022/11/26 15:35:12;;;;;;;84.07;29.73;;;;;;;;;;6264340;28;20056;-62
2022/11/26 15:38:16;;;;;;;80.60;28.08;;;;;;;;;;6267998;28;20045;-60
2022/11/26 15:41:18;;;;;;;80.35;29.02;;;;;;;;;;6258042;28;20589;-60
2022/11/26 15:44:24;;;;;;;80.05;29.90;;;;;;;;;;6253204;28;20129;-61
2022/11/26 15:47:27;;;;;;;81.72;29.67;;;;;;;;;;6246666;28;20149;-60
2022/11/26 15:50:33;;;;;;;88.60;31.50;;;;;;;;;;6246294;28;20068;-61
2022/11/26 15:53:37;;;;;;;81.22;31.50;;;;;;;;;;6244860;28;20155;-60
2022/11/26 15:56:38;;;;;;;93.00;33.22;;;;;;;;;;6249944;28;22206;-60
2022/11/26 15:59:42;;;;;;;97.13;33.75;;;;;;;;;;6249424;28;20136;-60
2022/11/26 16:02:44;;;;;;;106.78;38.83;;;;;;;;;;6247903;28;20045;-60
2022/11/26 16:05:53;;;;;;;103.65;34.95;;;;;;;;;;6248747;28;20053;-60
2022/11/26 16:09:09;;;;;;;67.65;25.70;;;;;;;;;;6239089;28;20057;-60
2022/11/26 16:12:32;;;;;;;68.68;26.85;;;;;;;;;;6249515;28;20484;-60
2022/11/26 16:15:33;;;;;;;65.65;26.42;;;;;;;;;;6245022;28;20084;-60
2022/11/26 16:19:03;;;;;;;74.07;27.60;;;;;;;;;;6254112;28;20105;-60
2022/11/26 16:22:05;;;;;;;62.05;21.90;;;;;;;;;;6257383;28;20056;-60
2022/11/26 16:25:19;;;;;;;64.82;24.30;;;;;;;;;;6254606;28;20041;-60
2022/11/26 16:28:19;;;;;;;86.53;28.35;;;;;;;;;;6251135;28;20488;-60
2022/11/26 16:31:21;;;;;;;62.55;25.40;;;;;;;;;;6252138;28;20127;-61
2022/11/26 16:34:24;;;;;;;64.10;24.55;;;;;;;;;;6251632;28;20091;-60
2022/11/26 16:37:30;;;;;;;61.85;24.42;;;;;;;;;;6251508;28;20048;-62
2022/11/26 16:40:31;;;;;;;61.58;24.85;;;;;;;;;;6251729;28;20040;-60
2022/11/26 16:43:31;;;;;;;64.50;25.67;;;;;;;;;;6252945;28;20047;-61
2022/11/26 16:46:35;;;;;;;56.72;23.95;;;;;;;;;;6254334;28;20049;-60
2022/11/26 16:49:36;;;;;;;62.08;24.17;;;;;;;;;;6253025;28;20053;-60
2022/11/26 16:52:37;;;;;;;65.35;26.50;;;;;;;;;;6251148;28;20049;-60
2022/11/26 16:55:38;;;;;;;61.60;25.98;;;;;;;;;;6252233;28;20049;-60
2022/11/26 16:58:39;;;;;;;66.10;25.77;;;;;;;;;;6263502;28;20657;-60
2022/11/26 17:01:39;;;;;;;58.78;23.67;;;;;;;;;;6260602;28;20471;-60
2022/11/26 17:04:40;;;;;;;68.15;25.73;;;;;;;;;;6253487;28;20095;-60
2022/11/26 17:07:45;;;;;;;65.13;25.38;;;;;;;;;;6249372;28;20130;-60
2022/11/26 17:10:46;;;;;;;61.38;23.33;;;;;;;;;;6252329;28;20095;-60
2022/11/26 17:13:47;;;;;;;59.28;23.73;;;;;;;;;;6250816;28;20041;-60
2022/11/26 17:16:47;;;;;;;68.63;26.15;;;;;;;;;;6251447;28;20098;-60
2022/11/26 17:19:48;;;;;;;73.63;28.90;;;;;;;;;;6246315;28;20053;-61
2022/11/26 17:22:49;;;;;;;63.05;27.63;;;;;;;;;;6262183;28;20041;-60
2022/11/26 17:25:53;;;;;;;68.20;26.50;;;;;;;;;;6269760;28;20059;-60
2022/11/26 17:28:54;;;;;;;67.53;24.92;;;;;;;;;;6253326;28;20045;-60
2022/11/26 17:31:54;;;;;;;66.15;25.20;;;;;;;;;;6246293;28;20143;-67
2022/11/26 17:34:55;;;;;;;62.20;25.25;;;;;;;;;;6258532;28;20057;-62
2022/11/26 17:37:56;;;;;;;71.60;25.63;;;;;;;;;;6266823;28;20552;-68
2022/11/26 17:40:56;;;;;;;76.55;28.02;;;;;;;;;;6265767;28;20047;-61
2022/11/26 17:43:57;;;;;;;79.03;30.38;;;;;;;;;;6269431;28;20053;-63
2022/11/26 17:47:00;;;;;;;81.95;29.88;;;;;;;;;;6266601;28;20044;-66
2022/11/26 17:50:00;;;;;;;82.38;29.90;;;;;;;;;;6263064;28;20045;-66